sensor_id;sensor_type;location;lat;lon;timestamp;pressure;altitude;pressure_sealevel;temperature
19196;BMP280;9730;48.926;11.376;2022-07-09T00:00:47;98396.03;;;10.83
19196;BMP280;9730;48.926;11.376;2022-07-09T00:03:14;98389.94;;;10.89
19196;BMP280;9730;48.926;11.376;2022-07-09T00:05:40;98387.84;;;10.77
19196;BMP280;9730;48.926;11.376;2022-07-09T00:08:06;98388.91;;;10.70
19196;BMP280;9730;48.926;11.376;2022-07-09T00:10:33;98392.41;;;10.66
19196;BMP280;9730;48.926;11.376;2022-07-09T00:13:00;98392.91;;;10.51
19196;BMP280;9730;48.926;11.376;2022-07-09T00:15:27;98383.28;;;10.36
19196;BMP280;9730;48.926;11.376;2022-07-09T00:17:53;98396.88;;;10.32
19196;BMP280;9730;48.926;11.376;2022-07-09T00:20:20;98386.63;;;10.11
19196;BMP280;9730;48.926;11.376;2022-07-09T00:22:46;98387.41;;;10.13
19196;BMP280;9730;48.926;11.376;2022-07-09T00:25:12;98381.09;;;10.00
19196;BMP280;9730;48.926;11.376;2022-07-09T00:27:39;98384.22;;;10.08
19196;BMP280;9730;48.926;11.376;2022-07-09T00:30:07;98378.94;;;10.41
19196;BMP280;9730;48.926;11.376;2022-07-09T00:32:33;98375.03;;;10.57
19196;BMP280;9730;48.926;11.376;2022-07-09T00:35:00;98372.22;;;10.66
19196;BMP280;9730;48.926;11.376;2022-07-09T00:37:26;98372.88;;;10.71
19196;BMP280;9730;48.926;11.376;2022-07-09T00:39:53;98377.06;;;10.72
19196;BMP280;9730;48.926;11.376;2022-07-09T00:42:19;98370.22;;;11.00
19196;BMP280;9730;48.926;11.376;2022-07-09T00:44:45;98369.13;;;11.07
19196;BMP280;9730;48.926;11.376;2022-07-09T00:47:13;98369.38;;;10.75
19196;BMP280;9730;48.926;11.376;2022-07-09T00:49:40;98366.38;;;10.40
19196;BMP280;9730;48.926;11.376;2022-07-09T00:52:07;98367.28;;;10.63
19196;BMP280;9730;48.926;11.376;2022-07-09T00:54:35;98370.88;;;10.56
19196;BMP280;9730;48.926;11.376;2022-07-09T00:57:03;98372.03;;;10.72
19196;BMP280;9730;48.926;11.376;2022-07-09T00:59:29;98373.56;;;10.76
19196;BMP280;9730;48.926;11.376;2022-07-09T01:01:56;98368.53;;;10.50
19196;BMP280;9730;48.926;11.376;2022-07-09T01:04:23;98369.00;;;10.11
19196;BMP280;9730;48.926;11.376;2022-07-09T01:06:50;98366.53;;;10.35
19196;BMP280;9730;48.926;11.376;2022-07-09T01:09:16;98375.16;;;10.28
19196;BMP280;9730;48.926;11.376;2022-07-09T01:11:42;98363.16;;;10.35
19196;BMP280;9730;48.926;11.376;2022-07-09T01:14:09;98371.84;;;10.26
19196;BMP280;9730;48.926;11.376;2022-07-09T01:16:36;98372.19;;;9.89
19196;BMP280;9730;48.926;11.376;2022-07-09T01:19:03;98367.94;;;9.62
19196;BMP280;9730;48.926;11.376;2022-07-09T01:21:31;98367.41;;;9.80
19196;BMP280;9730;48.926;11.376;2022-07-09T01:23:57;98359.06;;;10.07
19196;BMP280;9730;48.926;11.376;2022-07-09T01:26:23;98346.84;;;10.20
19196;BMP280;9730;48.926;11.376;2022-07-09T01:28:50;98345.81;;;10.26
19196;BMP280;9730;48.926;11.376;2022-07-09T01:31:16;98354.06;;;10.05
19196;BMP280;9730;48.926;11.376;2022-07-09T01:33:43;98358.75;;;10.15
19196;BMP280;9730;48.926;11.376;2022-07-09T01:36:10;98355.38;;;10.16
19196;BMP280;9730;48.926;11.376;2022-07-09T01:38:37;98346.44;;;10.07
19196;BMP280;9730;48.926;11.376;2022-07-09T01:41:04;98349.47;;;9.61
19196;BMP280;9730;48.926;11.376;2022-07-09T01:43:30;98345.00;;;9.71
19196;BMP280;9730;48.926;11.376;2022-07-09T01:45:58;98349.22;;;9.70
19196;BMP280;9730;48.926;11.376;2022-07-09T01:48:25;98338.63;;;9.87
19196;BMP280;9730;48.926;11.376;2022-07-09T01:50:51;98340.72;;;9.73
19196;BMP280;9730;48.926;11.376;2022-07-09T01:53:19;98347.34;;;9.48
19196;BMP280;9730;48.926;11.376;2022-07-09T01:55:46;98340.50;;;9.53
19196;BMP280;9730;48.926;11.376;2022-07-09T01:58:13;98338.88;;;9.79
19196;BMP280;9730;48.926;11.376;2022-07-09T02:00:40;98332.38;;;10.00
19196;BMP280;9730;48.926;11.376;2022-07-09T02:03:06;98329.88;;;10.00
19196;BMP280;9730;48.926;11.376;2022-07-09T02:05:32;98332.34;;;10.01
19196;BMP280;9730;48.926;11.376;2022-07-09T02:07:59;98330.44;;;10.07
19196;BMP280;9730;48.926;11.376;2022-07-09T02:10:25;98325.00;;;10.19
19196;BMP280;9730;48.926;11.376;2022-07-09T02:12:53;98326.81;;;10.16
19196;BMP280;9730;48.926;11.376;2022-07-09T02:15:19;98324.09;;;9.96
19196;BMP280;9730;48.926;11.376;2022-07-09T02:17:46;98319.47;;;10.08
19196;BMP280;9730;48.926;11.376;2022-07-09T02:20:13;98323.72;;;10.32
19196;BMP280;9730;48.926;11.376;2022-07-09T02:22:39;98324.13;;;10.70
19196;BMP280;9730;48.926;11.376;2022-07-09T02:25:06;98323.97;;;10.51
19196;BMP280;9730;48.926;11.376;2022-07-09T02:27:32;98321.25;;;10.57
19196;BMP280;9730;48.926;11.376;2022-07-09T02:30:00;98318.44;;;10.64
19196;BMP280;9730;48.926;11.376;2022-07-09T02:32:26;98322.34;;;10.74
19196;BMP280;9730;48.926;11.376;2022-07-09T02:34:52;98318.78;;;10.55
19196;BMP280;9730;48.926;11.376;2022-07-09T02:37:19;98320.78;;;10.70
19196;BMP280;9730;48.926;11.376;2022-07-09T02:39:46;98315.16;;;10.62
19196;BMP280;9730;48.926;11.376;2022-07-09T02:42:12;98319.94;;;10.69
19196;BMP280;9730;48.926;11.376;2022-07-09T02:44:38;98318.88;;;10.76
19196;BMP280;9730;48.926;11.376;2022-07-09T02:47:06;98324.66;;;10.80
19196;BMP280;9730;48.926;11.376;2022-07-09T02:49:33;98327.16;;;10.80
19196;BMP280;9730;48.926;11.376;2022-07-09T02:51:59;98321.78;;;10.89
19196;BMP280;9730;48.926;11.376;2022-07-09T02:54:26;98314.84;;;10.95
19196;BMP280;9730;48.926;11.376;2022-07-09T02:56:53;98320.44;;;11.03
19196;BMP280;9730;48.926;11.376;2022-07-09T02:59:19;98318.63;;;11.07
19196;BMP280;9730;48.926;11.376;2022-07-09T03:01:45;98315.91;;;11.13
19196;BMP280;9730;48.926;11.376;2022-07-09T03:04:13;98320.16;;;11.11
19196;BMP280;9730;48.926;11.376;2022-07-09T03:06:40;98317.28;;;11.21
19196;BMP280;9730;48.926;11.376;2022-07-09T03:09:06;98330.44;;;11.06
19196;BMP280;9730;48.926;11.376;2022-07-09T03:11:32;98318.75;;;11.04
19196;BMP280;9730;48.926;11.376;2022-07-09T03:13:59;98319.72;;;10.77
19196;BMP280;9730;48.926;11.376;2022-07-09T03:16:25;98322.31;;;10.98
19196;BMP280;9730;48.926;11.376;2022-07-09T03:18:51;98321.31;;;11.02
19196;BMP280;9730;48.926;11.376;2022-07-09T03:21:19;98325.66;;;10.99
19196;BMP280;9730;48.926;11.376;2022-07-09T03:23:45;98325.66;;;11.21
19196;BMP280;9730;48.926;11.376;2022-07-09T03:26:12;98328.00;;;11.26
19196;BMP280;9730;48.926;11.376;2022-07-09T03:28:38;98323.41;;;11.37
19196;BMP280;9730;48.926;11.376;2022-07-09T03:31:04;98323.47;;;11.13
19196;BMP280;9730;48.926;11.376;2022-07-09T03:33:31;98334.00;;;11.01
19196;BMP280;9730;48.926;11.376;2022-07-09T03:35:57;98323.69;;;11.07
19196;BMP280;9730;48.926;11.376;2022-07-09T03:38:25;98323.69;;;11.07
19196;BMP280;9730;48.926;11.376;2022-07-09T03:40:51;98333.88;;;11.04
19196;BMP280;9730;48.926;11.376;2022-07-09T03:43:18;98324.13;;;11.17
19196;BMP280;9730;48.926;11.376;2022-07-09T03:45:44;98330.72;;;11.21
19196;BMP280;9730;48.926;11.376;2022-07-09T03:48:10;98324.56;;;11.28
19196;BMP280;9730;48.926;11.376;2022-07-09T03:50:37;98324.34;;;11.12
19196;BMP280;9730;48.926;11.376;2022-07-09T03:53:03;98334.94;;;11.21
19196;BMP280;9730;48.926;11.376;2022-07-09T03:55:31;98321.31;;;11.48
19196;BMP280;9730;48.926;11.376;2022-07-09T03:57:57;98327.81;;;11.32
19196;BMP280;9730;48.926;11.376;2022-07-09T04:00:23;98324.81;;;11.44
19196;BMP280;9730;48.926;11.376;2022-07-09T04:02:50;98320.81;;;11.38
19196;BMP280;9730;48.926;11.376;2022-07-09T04:05:17;98322.66;;;11.35
19196;BMP280;9730;48.926;11.376;2022-07-09T04:07:43;98320.94;;;11.35
19196;BMP280;9730;48.926;11.376;2022-07-09T04:10:09;98330.91;;;11.38
19196;BMP280;9730;48.926;11.376;2022-07-09T04:12:37;98319.13;;;11.62
19196;BMP280;9730;48.926;11.376;2022-07-09T04:15:04;98319.28;;;11.80
19196;BMP280;9730;48.926;11.376;2022-07-09T04:17:30;98327.00;;;11.75
19196;BMP280;9730;48.926;11.376;2022-07-09T04:19:56;98322.66;;;12.00
19196;BMP280;9730;48.926;11.376;2022-07-09T04:22:23;98320.25;;;12.19
19196;BMP280;9730;48.926;11.376;2022-07-09T04:24:49;98327.94;;;12.16
19196;BMP280;9730;48.926;11.376;2022-07-09T04:27:15;98332.66;;;11.82
19196;BMP280;9730;48.926;11.376;2022-07-09T04:29:43;98322.19;;;11.91
19196;BMP280;9730;48.926;11.376;2022-07-09T04:32:09;98331.59;;;11.87
19196;BMP280;9730;48.926;11.376;2022-07-09T04:34:36;98321.97;;;11.97
19196;BMP280;9730;48.926;11.376;2022-07-09T04:37:02;98325.03;;;12.05
19196;BMP280;9730;48.926;11.376;2022-07-09T04:39:29;98325.91;;;12.04
19196;BMP280;9730;48.926;11.376;2022-07-09T04:41:55;98325.03;;;12.05
19196;BMP280;9730;48.926;11.376;2022-07-09T04:44:21;98339.44;;;11.81
19196;BMP280;9730;48.926;11.376;2022-07-09T04:46:49;98332.84;;;11.99
19196;BMP280;9730;48.926;11.376;2022-07-09T04:49:16;98333.22;;;12.31
19196;BMP280;9730;48.926;11.376;2022-07-09T04:51:42;98327.44;;;12.08
19196;BMP280;9730;48.926;11.376;2022-07-09T04:54:09;98336.72;;;12.07
19196;BMP280;9730;48.926;11.376;2022-07-09T04:56:35;98333.69;;;11.99
19196;BMP280;9730;48.926;11.376;2022-07-09T04:59:01;98334.97;;;12.29
19196;BMP280;9730;48.926;11.376;2022-07-09T05:01:28;98329.72;;;12.14
19196;BMP280;9730;48.926;11.376;2022-07-09T05:03:56;98330.13;;;12.24
19196;BMP280;9730;48.926;11.376;2022-07-09T05:06:23;98333.25;;;12.51
19196;BMP280;9730;48.926;11.376;2022-07-09T05:08:50;98331.72;;;12.47
19196;BMP280;9730;48.926;11.376;2022-07-09T05:11:16;98327.53;;;12.46
19196;BMP280;9730;48.926;11.376;2022-07-09T05:13:42;98331.53;;;12.51
19196;BMP280;9730;48.926;11.376;2022-07-09T05:16:10;98328.75;;;12.57
19196;BMP280;9730;48.926;11.376;2022-07-09T05:18:36;98331.38;;;12.54
19196;BMP280;9730;48.926;11.376;2022-07-09T05:21:04;98327.97;;;12.55
19196;BMP280;9730;48.926;11.376;2022-07-09T05:23:30;98328.53;;;12.81
19196;BMP280;9730;48.926;11.376;2022-07-09T05:25:57;98312.16;;;13.28
19196;BMP280;9730;48.926;11.376;2022-07-09T05:28:23;98317.56;;;13.21
19196;BMP280;9730;48.926;11.376;2022-07-09T05:30:49;98327.38;;;13.28
19196;BMP280;9730;48.926;11.376;2022-07-09T05:33:16;98322.03;;;13.34
19196;BMP280;9730;48.926;11.376;2022-07-09T05:35:42;98319.84;;;13.63
19196;BMP280;9730;48.926;11.376;2022-07-09T05:38:10;98314.22;;;13.57
19196;BMP280;9730;48.926;11.376;2022-07-09T05:40:37;98321.84;;;13.38
19196;BMP280;9730;48.926;11.376;2022-07-09T05:43:03;98309.31;;;13.89
19196;BMP280;9730;48.926;11.376;2022-07-09T05:45:29;98313.06;;;13.64
19196;BMP280;9730;48.926;11.376;2022-07-09T05:47:56;98322.63;;;13.57
19196;BMP280;9730;48.926;11.376;2022-07-09T05:50:22;98312.25;;;13.98
19196;BMP280;9730;48.926;11.376;2022-07-09T05:52:49;98313.31;;;14.11
19196;BMP280;9730;48.926;11.376;2022-07-09T05:55:16;98320.22;;;13.91
19196;BMP280;9730;48.926;11.376;2022-07-09T05:57:43;98328.41;;;13.96
19196;BMP280;9730;48.926;11.376;2022-07-09T06:00:09;98318.13;;;13.99
19196;BMP280;9730;48.926;11.376;2022-07-09T06:02:36;98320.84;;;14.13
19196;BMP280;9730;48.926;11.376;2022-07-09T06:05:02;98323.38;;;14.48
19196;BMP280;9730;48.926;11.376;2022-07-09T06:07:29;98319.56;;;14.56
19196;BMP280;9730;48.926;11.376;2022-07-09T06:09:55;98312.94;;;15.18
19196;BMP280;9730;48.926;11.376;2022-07-09T06:12:23;98299.41;;;15.65
19196;BMP280;9730;48.926;11.376;2022-07-09T06:14:49;98295.19;;;16.97
19196;BMP280;9730;48.926;11.376;2022-07-09T06:17:16;98285.72;;;18.07
19196;BMP280;9730;48.926;11.376;2022-07-09T06:19:42;98277.28;;;18.94
19196;BMP280;9730;48.926;11.376;2022-07-09T06:22:08;98271.63;;;19.39
19196;BMP280;9730;48.926;11.376;2022-07-09T06:24:35;98256.53;;;20.40
19196;BMP280;9730;48.926;11.376;2022-07-09T06:27:01;98243.59;;;21.41
19196;BMP280;9730;48.926;11.376;2022-07-09T06:29:29;98242.03;;;23.04
19196;BMP280;9730;48.926;11.376;2022-07-09T06:31:55;98225.19;;;24.44
19196;BMP280;9730;48.926;11.376;2022-07-09T06:34:25;98209.47;;;25.64
19196;BMP280;9730;48.926;11.376;2022-07-09T06:36:51;98211.56;;;25.60
19196;BMP280;9730;48.926;11.376;2022-07-09T06:39:17;98214.19;;;25.51
19196;BMP280;9730;48.926;11.376;2022-07-09T06:42:04;98208.59;;;24.56
19196;BMP280;9730;48.926;11.376;2022-07-09T06:44:32;98233.47;;;22.74
19196;BMP280;9730;48.926;11.376;2022-07-09T06:46:58;98228.50;;;23.02
19196;BMP280;9730;48.926;11.376;2022-07-09T06:49:25;98231.75;;;22.34
19196;BMP280;9730;48.926;11.376;2022-07-09T06:51:51;98222.94;;;22.56
19196;BMP280;9730;48.926;11.376;2022-07-09T06:54:17;98222.44;;;22.01
19196;BMP280;9730;48.926;11.376;2022-07-09T06:56:44;98226.25;;;20.90
19196;BMP280;9730;48.926;11.376;2022-07-09T06:59:10;98212.13;;;22.53
19196;BMP280;9730;48.926;11.376;2022-07-09T07:01:38;98197.75;;;24.62
19196;BMP280;9730;48.926;11.376;2022-07-09T07:04:04;98192.09;;;25.83
19196;BMP280;9730;48.926;11.376;2022-07-09T07:06:31;98192.50;;;26.56
19196;BMP280;9730;48.926;11.376;2022-07-09T07:08:57;98187.50;;;27.62
19196;BMP280;9730;48.926;11.376;2022-07-09T07:11:24;98184.44;;;27.74
19196;BMP280;9730;48.926;11.376;2022-07-09T07:13:50;98186.56;;;26.88
19196;BMP280;9730;48.926;11.376;2022-07-09T07:16:17;98197.97;;;26.27
19196;BMP280;9730;48.926;11.376;2022-07-09T07:18:44;98177.66;;;27.89
19196;BMP280;9730;48.926;11.376;2022-07-09T07:21:11;98183.34;;;27.85
19196;BMP280;9730;48.926;11.376;2022-07-09T07:23:37;98198.53;;;26.22
19196;BMP280;9730;48.926;11.376;2022-07-09T07:26:03;98185.28;;;25.99
19196;BMP280;9730;48.926;11.376;2022-07-09T07:28:30;98202.97;;;23.96
19196;BMP280;9730;48.926;11.376;2022-07-09T07:30:56;98193.72;;;23.84
19196;BMP280;9730;48.926;11.376;2022-07-09T07:33:22;98183.38;;;24.50
19196;BMP280;9730;48.926;11.376;2022-07-09T07:35:50;98171.19;;;25.15
19196;BMP280;9730;48.926;11.376;2022-07-09T07:38:17;98153.53;;;27.81
19196;BMP280;9730;48.926;11.376;2022-07-09T07:40:43;98172.00;;;25.77
19196;BMP280;9730;48.926;11.376;2022-07-09T07:43:10;98189.13;;;23.69
19196;BMP280;9730;48.926;11.376;2022-07-09T07:45:37;98177.75;;;25.88
19196;BMP280;9730;48.926;11.376;2022-07-09T07:48:03;98167.09;;;26.77
19196;BMP280;9730;48.926;11.376;2022-07-09T07:50:30;98151.97;;;28.65
19196;BMP280;9730;48.926;11.376;2022-07-09T07:52:59;98165.94;;;26.28
19196;BMP280;9730;48.926;11.376;2022-07-09T07:55:25;98168.13;;;26.58
19196;BMP280;9730;48.926;11.376;2022-07-09T07:57:51;98147.66;;;28.34
19196;BMP280;9730;48.926;11.376;2022-07-09T08:00:18;98149.53;;;28.64
19196;BMP280;9730;48.926;11.376;2022-07-09T08:02:44;98157.22;;;28.02
19196;BMP280;9730;48.926;11.376;2022-07-09T08:05:10;98166.34;;;25.03
19196;BMP280;9730;48.926;11.376;2022-07-09T08:07:37;98179.88;;;23.48
19196;BMP280;9730;48.926;11.376;2022-07-09T08:10:06;98168.25;;;23.81
19196;BMP280;9730;48.926;11.376;2022-07-09T08:12:32;98178.25;;;23.07
19196;BMP280;9730;48.926;11.376;2022-07-09T08:14:59;98147.84;;;26.28
19196;BMP280;9730;48.926;11.376;2022-07-09T08:17:25;98142.81;;;27.76
19196;BMP280;9730;48.926;11.376;2022-07-09T08:19:51;98149.81;;;26.77
19196;BMP280;9730;48.926;11.376;2022-07-09T08:22:18;98161.75;;;24.97
19196;BMP280;9730;48.926;11.376;2022-07-09T08:24:44;98155.09;;;26.42
19196;BMP280;9730;48.926;11.376;2022-07-09T08:27:12;98163.50;;;25.32
19196;BMP280;9730;48.926;11.376;2022-07-09T08:29:38;98162.41;;;25.08
19196;BMP280;9730;48.926;11.376;2022-07-09T08:32:05;98159.19;;;24.61
19196;BMP280;9730;48.926;11.376;2022-07-09T08:34:31;98163.72;;;24.30
19196;BMP280;9730;48.926;11.376;2022-07-09T08:36:58;98159.81;;;24.36
19196;BMP280;9730;48.926;11.376;2022-07-09T08:39:24;98166.22;;;23.85
19196;BMP280;9730;48.926;11.376;2022-07-09T08:41:50;98172.59;;;22.84
19196;BMP280;9730;48.926;11.376;2022-07-09T08:46:52;98164.03;;;23.90
19196;BMP280;9730;48.926;11.376;2022-07-09T08:49:19;98149.19;;;25.38
19196;BMP280;9730;48.926;11.376;2022-07-09T08:51:45;98129.41;;;27.15
19196;BMP280;9730;48.926;11.376;2022-07-09T08:54:12;98117.31;;;29.79
19196;BMP280;9730;48.926;11.376;2022-07-09T08:56:39;98097.34;;;31.03
19196;BMP280;9730;48.926;11.376;2022-07-09T08:59:06;98102.81;;;31.08
19196;BMP280;9730;48.926;11.376;2022-07-09T09:01:32;98143.69;;;26.10
19196;BMP280;9730;48.926;11.376;2022-07-09T09:04:00;98132.31;;;25.78
19196;BMP280;9730;48.926;11.376;2022-07-09T09:06:27;98104.47;;;29.03
19196;BMP280;9730;48.926;11.376;2022-07-09T09:08:54;98117.59;;;27.05
19196;BMP280;9730;48.926;11.376;2022-07-09T09:11:21;98127.75;;;24.38
19196;BMP280;9730;48.926;11.376;2022-07-09T09:13:48;98146.94;;;23.60
19196;BMP280;9730;48.926;11.376;2022-07-09T09:16:15;98123.72;;;24.72
19196;BMP280;9730;48.926;11.376;2022-07-09T09:18:44;98117.88;;;25.06
19196;BMP280;9730;48.926;11.376;2022-07-09T09:21:12;98102.66;;;26.58
19196;BMP280;9730;48.926;11.376;2022-07-09T09:23:39;98102.19;;;26.95
19196;BMP280;9730;48.926;11.376;2022-07-09T09:26:09;98108.22;;;25.43
19196;BMP280;9730;48.926;11.376;2022-07-09T09:28:44;98104.59;;;25.36
19196;BMP280;9730;48.926;11.376;2022-07-09T09:31:17;98104.19;;;24.24
19196;BMP280;9730;48.926;11.376;2022-07-09T09:33:43;98101.56;;;23.41
19196;BMP280;9730;48.926;11.376;2022-07-09T09:36:09;98086.63;;;26.04
19196;BMP280;9730;48.926;11.376;2022-07-09T09:38:37;98057.25;;;28.23
19196;BMP280;9730;48.926;11.376;2022-07-09T09:41:03;98062.22;;;29.61
19196;BMP280;9730;48.926;11.376;2022-07-09T09:43:30;98067.91;;;28.82
19196;BMP280;9730;48.926;11.376;2022-07-09T09:45:58;98055.06;;;30.14
19196;BMP280;9730;48.926;11.376;2022-07-09T09:48:27;98094.50;;;23.71
19196;BMP280;9730;48.926;11.376;2022-07-09T09:50:54;98091.13;;;23.42
19196;BMP280;9730;48.926;11.376;2022-07-09T09:53:21;98078.38;;;26.00
19196;BMP280;9730;48.926;11.376;2022-07-09T09:55:50;98069.16;;;26.48
19196;BMP280;9730;48.926;11.376;2022-07-09T09:58:17;98039.59;;;29.84
19196;BMP280;9730;48.926;11.376;2022-07-09T10:00:43;98040.50;;;29.54
19196;BMP280;9730;48.926;11.376;2022-07-09T10:03:10;98035.13;;;29.11
19196;BMP280;9730;48.926;11.376;2022-07-09T10:05:37;98033.41;;;30.51
19196;BMP280;9730;48.926;11.376;2022-07-09T10:08:04;98042.78;;;29.05
19196;BMP280;9730;48.926;11.376;2022-07-09T10:10:30;98066.50;;;28.10
19196;BMP280;9730;48.926;11.376;2022-07-09T10:12:58;98037.75;;;28.27
19196;BMP280;9730;48.926;11.376;2022-07-09T10:15:25;98039.41;;;28.66
19196;BMP280;9730;48.926;11.376;2022-07-09T10:17:52;98044.47;;;27.42
19196;BMP280;9730;48.926;11.376;2022-07-09T10:20:28;98043.19;;;27.23
19196;BMP280;9730;48.926;11.376;2022-07-09T10:22:56;98043.34;;;27.29
19196;BMP280;9730;48.926;11.376;2022-07-09T10:25:22;98057.13;;;26.80
19196;BMP280;9730;48.926;11.376;2022-07-09T10:27:49;98056.72;;;25.76
19196;BMP280;9730;48.926;11.376;2022-07-09T10:30:24;98044.47;;;27.19
19196;BMP280;9730;48.926;11.376;2022-07-09T10:33:06;98061.66;;;25.52
19196;BMP280;9730;48.926;11.376;2022-07-09T10:35:42;98051.88;;;25.38
19196;BMP280;9730;48.926;11.376;2022-07-09T10:38:09;98051.41;;;25.43
19196;BMP280;9730;48.926;11.376;2022-07-09T10:40:39;98052.59;;;25.48
19196;BMP280;9730;48.926;11.376;2022-07-09T10:43:06;98059.69;;;25.46
19196;BMP280;9730;48.926;11.376;2022-07-09T10:45:37;98061.97;;;25.49
19196;BMP280;9730;48.926;11.376;2022-07-09T10:48:05;98060.72;;;25.53
19196;BMP280;9730;48.926;11.376;2022-07-09T10:50:32;98063.59;;;25.50
19196;BMP280;9730;48.926;11.376;2022-07-09T10:52:59;98054.94;;;25.59
19196;BMP280;9730;48.926;11.376;2022-07-09T10:55:26;98048.81;;;25.77
19196;BMP280;9730;48.926;11.376;2022-07-09T10:57:53;98053.53;;;25.82
19196;BMP280;9730;48.926;11.376;2022-07-09T11:00:20;98060.47;;;25.81
19196;BMP280;9730;48.926;11.376;2022-07-09T11:02:52;98064.88;;;24.58
19196;BMP280;9730;48.926;11.376;2022-07-09T11:05:19;98061.66;;;24.47
19196;BMP280;9730;48.926;11.376;2022-07-09T11:07:53;98055.81;;;24.71
19196;BMP280;9730;48.926;11.376;2022-07-09T11:10:20;98065.75;;;24.40
19196;BMP280;9730;48.926;11.376;2022-07-09T11:12:47;98069.03;;;23.68
19196;BMP280;9730;48.926;11.376;2022-07-09T11:15:16;98059.69;;;23.10
19196;BMP280;9730;48.926;11.376;2022-07-09T11:17:42;98062.00;;;22.74
19196;BMP280;9730;48.926;11.376;2022-07-09T11:20:11;98061.56;;;23.08
19196;BMP280;9730;48.926;11.376;2022-07-09T11:22:42;98061.59;;;23.27
19196;BMP280;9730;48.926;11.376;2022-07-09T11:25:12;98066.75;;;22.88
19196;BMP280;9730;48.926;11.376;2022-07-09T11:27:39;98058.31;;;23.44
19196;BMP280;9730;48.926;11.376;2022-07-09T11:30:06;98057.03;;;24.05
19196;BMP280;9730;48.926;11.376;2022-07-09T11:32:32;98053.91;;;24.01
19196;BMP280;9730;48.926;11.376;2022-07-09T11:34:59;98044.78;;;24.52
19196;BMP280;9730;48.926;11.376;2022-07-09T11:37:26;98042.81;;;24.01
19196;BMP280;9730;48.926;11.376;2022-07-09T11:39:53;98040.91;;;24.48
19196;BMP280;9730;48.926;11.376;2022-07-09T11:42:19;98045.72;;;24.61
19196;BMP280;9730;48.926;11.376;2022-07-09T11:44:52;98050.19;;;23.39
19196;BMP280;9730;48.926;11.376;2022-07-09T11:47:19;98049.66;;;23.26
19196;BMP280;9730;48.926;11.376;2022-07-09T11:49:48;98061.91;;;22.95
19196;BMP280;9730;48.926;11.376;2022-07-09T11:52:16;98054.09;;;23.05
19196;BMP280;9730;48.926;11.376;2022-07-09T11:54:54;98049.09;;;23.60
19196;BMP280;9730;48.926;11.376;2022-07-09T11:57:21;98041.19;;;24.00
19196;BMP280;9730;48.926;11.376;2022-07-09T11:59:48;98048.41;;;23.87
19196;BMP280;9730;48.926;11.376;2022-07-09T12:02:21;98041.09;;;24.37
19196;BMP280;9730;48.926;11.376;2022-07-09T12:04:48;98032.94;;;24.32
19196;BMP280;9730;48.926;11.376;2022-07-09T12:07:14;98034.59;;;23.88
19196;BMP280;9730;48.926;11.376;2022-07-09T12:09:41;98019.88;;;24.43
19196;BMP280;9730;48.926;11.376;2022-07-09T12:12:08;98023.56;;;24.67
19196;BMP280;9730;48.926;11.376;2022-07-09T12:14:35;98023.72;;;24.83
19196;BMP280;9730;48.926;11.376;2022-07-09T12:17:01;98020.69;;;24.34
19196;BMP280;9730;48.926;11.376;2022-07-09T12:19:27;98014.78;;;24.61
19196;BMP280;9730;48.926;11.376;2022-07-09T12:21:54;98012.06;;;24.62
19196;BMP280;9730;48.926;11.376;2022-07-09T12:24:21;98018.25;;;24.69
19196;BMP280;9730;48.926;11.376;2022-07-09T12:26:47;98006.00;;;25.15
19196;BMP280;9730;48.926;11.376;2022-07-09T12:29:15;97997.34;;;25.67
19196;BMP280;9730;48.926;11.376;2022-07-09T12:31:41;97996.69;;;25.39
19196;BMP280;9730;48.926;11.376;2022-07-09T12:34:07;97994.22;;;25.72
19196;BMP280;9730;48.926;11.376;2022-07-09T12:36:34;97985.91;;;25.86
19196;BMP280;9730;48.926;11.376;2022-07-09T12:39:00;97986.22;;;25.23
19196;BMP280;9730;48.926;11.376;2022-07-09T12:41:26;97998.38;;;24.25
19196;BMP280;9730;48.926;11.376;2022-07-09T12:43:53;98000.56;;;23.75
19196;BMP280;9730;48.926;11.376;2022-07-09T12:46:20;97988.31;;;23.96
19196;BMP280;9730;48.926;11.376;2022-07-09T12:48:47;97997.59;;;23.60
19196;BMP280;9730;48.926;11.376;2022-07-09T12:51:13;98000.75;;;23.07
19196;BMP280;9730;48.926;11.376;2022-07-09T12:53:40;97994.22;;;23.60
19196;BMP280;9730;48.926;11.376;2022-07-09T12:56:06;97997.38;;;23.35
19196;BMP280;9730;48.926;11.376;2022-07-09T12:58:33;97985.53;;;23.51
19196;BMP280;9730;48.926;11.376;2022-07-09T13:00:59;97982.03;;;23.71
19196;BMP280;9730;48.926;11.376;2022-07-09T13:03:27;97981.88;;;23.63
19196;BMP280;9730;48.926;11.376;2022-07-09T13:05:53;97989.53;;;23.08
19196;BMP280;9730;48.926;11.376;2022-07-09T13:08:19;97984.50;;;23.07
19196;BMP280;9730;48.926;11.376;2022-07-09T13:10:46;97976.22;;;23.41
19196;BMP280;9730;48.926;11.376;2022-07-09T13:13:12;97966.44;;;23.73
19196;BMP280;9730;48.926;11.376;2022-07-09T13:15:40;97964.91;;;24.16
19196;BMP280;9730;48.926;11.376;2022-07-09T13:18:06;97960.75;;;24.32
19196;BMP280;9730;48.926;11.376;2022-07-09T13:20:34;97967.75;;;23.86
19196;BMP280;9730;48.926;11.376;2022-07-09T13:23:00;97969.22;;;23.34
19196;BMP280;9730;48.926;11.376;2022-07-09T13:25:27;97968.09;;;23.36
19196;BMP280;9730;48.926;11.376;2022-07-09T13:27:53;97965.22;;;23.58
19196;BMP280;9730;48.926;11.376;2022-07-09T13:30:19;97964.06;;;23.89
19196;BMP280;9730;48.926;11.376;2022-07-09T13:32:47;97947.16;;;24.40
19196;BMP280;9730;48.926;11.376;2022-07-09T13:35:13;97956.66;;;23.76
19196;BMP280;9730;48.926;11.376;2022-07-09T13:37:41;97948.00;;;24.31
19196;BMP280;9730;48.926;11.376;2022-07-09T13:40:07;97947.28;;;23.85
19196;BMP280;9730;48.926;11.376;2022-07-09T13:42:34;97960.00;;;23.41
19196;BMP280;9730;48.926;11.376;2022-07-09T13:45:00;97959.16;;;23.40
19196;BMP280;9730;48.926;11.376;2022-07-09T13:47:27;97954.16;;;23.39
19196;BMP280;9730;48.926;11.376;2022-07-09T13:49:53;97955.19;;;23.64
19196;BMP280;9730;48.926;11.376;2022-07-09T13:52:21;97953.09;;;23.87
19196;BMP280;9730;48.926;11.376;2022-07-09T13:54:49;97952.13;;;24.24
19196;BMP280;9730;48.926;11.376;2022-07-09T13:57:15;97946.25;;;24.75
19196;BMP280;9730;48.926;11.376;2022-07-09T13:59:41;97938.19;;;24.44
19196;BMP280;9730;48.926;11.376;2022-07-09T14:02:08;97932.22;;;24.16
19196;BMP280;9730;48.926;11.376;2022-07-09T14:04:34;97933.16;;;24.69
19196;BMP280;9730;48.926;11.376;2022-07-09T14:07:00;97923.38;;;24.98
19196;BMP280;9730;48.926;11.376;2022-07-09T14:09:27;97923.66;;;24.16